Time;durP1;ratioP1;P1;durP2;ratioP2;P2;SDS_P1;SDS_P2;PMS_P1;PMS_P2;Temp;Humidity;BMP_temperature;BMP_pressure;BME280_temperature;BME280_humidity;BME280_pressure;Samples;Min_cycle;Max_cycle;Signal;HPM_P1;HPM_P2
2023/10/18 00:00:31;;;;;;;11.30;7.95;;;6.20;99.90;;;;;;5109439;27;20114;-62
2023/10/18 00:02:57;;;;;;;13.63;8.20;;;6.20;99.90;;;;;;5122014;27;20039;-61
2023/10/18 00:05:25;;;;;;;11.90;8.55;;;6.20;99.90;;;;;;5129222;27;20110;-62
2023/10/18 00:07:57;;;;;;;11.68;8.43;;;6.20;99.90;;;;;;5085230;27;20055;-64
2023/10/18 00:10:23;;;;;;;11.97;8.47;;;6.10;99.90;;;;;;5114252;27;20118;-61
2023/10/18 00:12:52;;;;;;;13.30;9.27;;;6.10;99.90;;;;;;5117384;27;20042;-61
2023/10/18 00:15:18;;;;;;;13.48;9.15;;;6.10;99.90;;;;;;5130272;27;20498;-62
2023/10/18 00:17:44;;;;;;;12.82;8.70;;;6.00;99.90;;;;;;5101300;28;20114;-62
2023/10/18 00:20:16;;;;;;;14.27;9.05;;;6.00;99.90;;;;;;5099740;27;20043;-61
2023/10/18 00:22:43;;;;;;;;;;;6.00;99.90;;;;;;5118677;28;20125;-62
2023/10/18 00:25:12;;;;;;;13.30;9.25;;;6.00;99.90;;;;;;5099817;28;20378;-62
2023/10/18 00:27:46;;;;;;;15.73;10.52;;;6.00;99.90;;;;;;5123597;28;20051;-62
2023/10/18 00:30:12;;;;;;;16.65;9.77;;;5.90;99.90;;;;;;5102886;28;20047;-62
2023/10/18 00:32:39;;;;;;;16.38;9.95;;;5.90;99.90;;;;;;5127601;28;20035;-61
2023/10/18 00:35:22;;;;;;;16.40;10.23;;;5.90;99.90;;;;;;5099404;28;20071;-61
2023/10/18 00:37:49;;;;;;;15.60;9.75;;;5.90;99.90;;;;;;5106674;28;20039;-61
2023/10/18 00:42:53;;;;;;;16.85;10.68;;;5.80;99.90;;;;;;5116844;28;20043;-61
2023/10/18 00:45:21;;;;;;;15.63;10.10;;;5.90;99.90;;;;;;5118393;27;20520;-61
2023/10/18 00:47:48;;;;;;;17.60;10.65;;;5.80;99.90;;;;;;5104030;27;20070;-61
2023/10/18 00:50:14;;;;;;;17.33;10.48;;;5.80;99.90;;;;;;5105461;27;20143;-61
2023/10/18 00:52:41;;;;;;;16.30;11.10;;;5.80;99.90;;;;;;5107778;27;20395;-61
2023/10/18 00:55:09;;;;;;;14.63;10.65;;;5.80;99.90;;;;;;5112560;27;20624;-61
2023/10/18 00:57:35;;;;;;;16.13;11.27;;;5.70;99.90;;;;;;5098222;27;20116;-61
2023/10/18 01:00:12;;;;;;;17.27;11.15;;;5.70;99.90;;;;;;5105871;27;20039;-61
2023/10/18 01:02:41;;;;;;;17.60;12.00;;;5.70;99.90;;;;;;5105352;27;20080;-61
2023/10/18 01:05:11;;;;;;;17.98;12.00;;;5.70;99.90;;;;;;5109608;27;20047;-61
2023/10/18 01:07:37;;;;;;;17.67;11.95;;;5.60;99.90;;;;;;5103138;27;20190;-61
2023/10/18 01:10:07;;;;;;;17.23;12.07;;;5.70;99.90;;;;;;5110508;27;20074;-61
2023/10/18 01:12:34;;;;;;;21.38;13.45;;;5.70;99.90;;;;;;5104174;27;20043;-61
2023/10/18 01:15:00;;;;;;;21.08;13.75;;;5.60;99.90;;;;;;5108579;27;20047;-62
2023/10/18 01:17:26;;;;;;;21.30;13.13;;;5.60;99.90;;;;;;5119014;27;20050;-61
2023/10/18 01:19:53;;;;;;;21.75;13.95;;;5.60;99.90;;;;;;5116154;27;20039;-62
2023/10/18 01:22:19;;;;;;;21.15;12.77;;;5.60;99.90;;;;;;5132555;27;20043;-61
2023/10/18 01:24:45;;;;;;;23.23;14.23;;;5.60;99.90;;;;;;5134351;27;20046;-62
2023/10/18 01:27:12;;;;;;;23.73;14.00;;;5.60;99.90;;;;;;5114493;27;20406;-62
2023/10/18 01:29:39;;;;;;;21.60;14.02;;;5.60;99.90;;;;;;5115915;27;20169;-62
2023/10/18 01:32:05;;;;;;;20.25;13.93;;;5.60;99.90;;;;;;5131827;27;20042;-62
2023/10/18 01:34:31;;;;;;;21.30;14.05;;;5.60;99.90;;;;;;5134312;27;20031;-62
2023/10/18 01:36:58;;;;;;;23.88;15.30;;;5.60;99.90;;;;;;5096930;27;20051;-62
2023/10/18 01:39:28;;;;;;;23.40;14.95;;;5.50;99.90;;;;;;5113796;27;20126;-62
2023/10/18 01:41:54;;;;;;;23.90;14.85;;;5.60;99.90;;;;;;5113965;27;20035;-62
2023/10/18 01:44:33;;;;;;;23.13;14.93;;;5.60;99.90;;;;;;5106845;27;20050;-62
2023/10/18 01:47:08;;;;;;;22.65;14.95;;;5.60;99.90;;;;;;5110209;27;20058;-62
2023/10/18 01:49:44;;;;;;;23.35;15.13;;;5.60;99.90;;;;;;5109951;27;20039;-62
2023/10/18 01:52:12;;;;;;;22.30;15.25;;;5.50;99.90;;;;;;5112380;27;20047;-62
2023/10/18 01:54:38;;;;;;;22.92;15.27;;;5.50;99.90;;;;;;5110226;27;20493;-62
2023/10/18 01:57:06;;;;;;;26.50;15.45;;;5.50;99.90;;;;;;5124746;27;20074;-62
2023/10/18 01:59:34;;;;;;;25.60;16.30;;;5.50;99.90;;;;;;5106521;27;20395;-62
2023/10/18 02:02:05;;;;;;;27.02;15.95;;;5.50;99.90;;;;;;5104278;27;20382;-62
2023/10/18 02:04:37;;;;;;;24.48;15.88;;;5.50;99.90;;;;;;5104759;27;20064;-62
2023/10/18 02:07:06;;;;;;;25.05;16.30;;;5.40;99.90;;;;;;5112989;27;20067;-62
2023/10/18 02:09:36;;;;;;;24.10;16.23;;;5.40;99.90;;;;;;5100750;27;20052;-62
2023/10/18 02:12:08;;;;;;;25.55;16.17;;;5.40;99.90;;;;;;5103050;27;20050;-62
2023/10/18 02:14:34;;;;;;;23.88;16.40;;;5.40;99.90;;;;;;5101392;27;20047;-62
2023/10/18 02:17:00;;;;;;;25.42;17.23;;;5.40;99.90;;;;;;5112350;27;20373;-62
2023/10/18 02:19:27;;;;;;;26.05;16.80;;;5.40;99.90;;;;;;5104265;27;20038;-62
2023/10/18 02:21:56;;;;;;;26.45;17.25;;;5.40;99.90;;;;;;5121458;27;20096;-62
2023/10/18 02:24:23;;;;;;;28.40;18.40;;;5.50;99.90;;;;;;5110351;27;20051;-62
2023/10/18 02:27:00;;;;;;;27.52;17.40;;;5.50;99.90;;;;;;5106551;27;20059;-62
2023/10/18 02:29:27;;;;;;;27.58;17.05;;;5.50;99.90;;;;;;5110060;27;20043;-62
2023/10/18 02:31:57;;;;;;;29.67;17.85;;;5.50;99.90;;;;;;5127690;27;20039;-62
2023/10/18 02:34:26;;;;;;;28.90;18.38;;;5.50;99.90;;;;;;5106957;27;20130;-62
2023/10/18 02:36:52;;;;;;;26.77;17.58;;;5.50;99.90;;;;;;5126942;27;20039;-62
2023/10/18 02:39:30;;;;;;;28.45;18.25;;;5.50;99.90;;;;;;5107296;27;20043;-62
2023/10/18 02:41:58;;;;;;;28.83;17.70;;;5.50;99.90;;;;;;5117324;27;20066;-62
2023/10/18 02:44:25;;;;;;;25.27;17.38;;;5.50;99.90;;;;;;5103497;27;20047;-62
2023/10/18 02:46:54;;;;;;;31.98;18.98;;;5.50;99.90;;;;;;5084163;27;20495;-62
2023/10/18 02:49:27;;;;;;;27.85;18.48;;;5.50;99.90;;;;;;5120431;27;20039;-62
2023/10/18 02:51:53;;;;;;;27.85;18.00;;;5.50;99.90;;;;;;5100850;27;20401;-62
2023/10/18 02:54:23;;;;;;;29.33;18.25;;;5.50;99.90;;;;;;5120607;27;20049;-62
2023/10/18 02:56:52;;;;;;;27.67;17.33;;;5.50;99.90;;;;;;5117308;27;20039;-62
2023/10/18 02:59:21;;;;;;;27.50;18.60;;;5.50;99.90;;;;;;5108488;27;20051;-62
2023/10/18 03:01:49;;;;;;;28.42;17.13;;;5.50;99.90;;;;;;5119551;27;20089;-62
2023/10/18 03:04:14;;;;;;;26.33;17.70;;;5.50;99.90;;;;;;5127767;27;20043;-62
2023/10/18 03:06:41;;;;;;;30.92;19.02;;;5.50;99.90;;;;;;5107304;27;20047;-62
2023/10/18 03:11:53;;;;;;;25.35;16.95;;;5.50;99.90;;;;;;5113231;27;20050;-62
2023/10/18 03:14:23;;;;;;;29.13;18.38;;;5.50;99.90;;;;;;5101808;27;20125;-62
2023/10/18 03:16:54;;;;;;;25.92;17.20;;;5.40;99.90;;;;;;5118953;27;20038;-62
2023/10/18 03:19:22;;;;;;;26.50;18.58;;;5.50;99.90;;;;;;5084835;27;20139;-62
2023/10/18 03:21:50;;;;;;;26.63;17.83;;;5.40;99.90;;;;;;5098634;27;20191;-62
2023/10/18 03:24:19;;;;;;;29.48;18.73;;;5.40;99.90;;;;;;5100958;27;20042;-62
2023/10/18 03:26:45;;;;;;;26.85;17.15;;;5.40;99.90;;;;;;5127216;27;20127;-62
2023/10/18 03:29:11;;;;;;;26.92;17.98;;;5.40;99.90;;;;;;5128743;27;20155;-62
2023/10/18 03:31:42;;;;;;;27.98;18.02;;;5.40;99.90;;;;;;5131854;27;20043;-62
2023/10/18 03:34:13;;;;;;;29.75;18.95;;;5.40;99.90;;;;;;5112521;27;20051;-62
2023/10/18 03:36:48;;;;;;;29.05;19.00;;;5.40;99.90;;;;;;5109510;27;20046;-62
2023/10/18 03:39:24;;;;;;;28.20;18.45;;;5.40;99.90;;;;;;5108063;27;20528;-62
2023/10/18 03:41:51;;;;;;;28.25;18.75;;;5.40;99.90;;;;;;5101616;27;20039;-62
2023/10/18 03:44:46;;;;;;;28.70;18.30;;;5.30;99.90;;;;;;5101267;27;20044;-62
2023/10/18 03:51:57;;;;;;;25.60;18.40;;;5.40;99.90;;;;;;5119324;27;20465;-62
2023/10/18 03:54:27;;;;;;;27.90;18.80;;;5.40;99.90;;;;;;5111527;27;20556;-62
2023/10/18 03:56:54;;;;;;;28.63;18.65;;;5.40;99.90;;;;;;5123519;27;20096;-62
2023/10/18 03:59:25;;;;;;;29.50;19.52;;;5.40;99.90;;;;;;5106836;27;20505;-62
2023/10/18 04:02:15;;;;;;;30.73;18.85;;;5.40;99.90;;;;;;5101875;27;20040;-62
2023/10/18 04:04:45;;;;;;;26.95;18.20;;;5.40;99.90;;;;;;5103535;27;20043;-62
2023/10/18 04:07:16;;;;;;;27.42;19.55;;;5.40;99.90;;;;;;5127370;27;20039;-62
2023/10/18 04:09:53;;;;;;;28.13;18.98;;;5.40;99.90;;;;;;5097815;27;20043;-62
2023/10/18 04:12:23;;;;;;;29.38;18.67;;;5.40;99.90;;;;;;5108235;27;20051;-62
2023/10/18 04:15:09;;;;;;;29.95;19.60;;;5.40;99.90;;;;;;5100766;27;20074;-62
2023/10/18 04:20:15;;;;;;;26.05;17.77;;;5.40;99.90;;;;;;5118520;27;20180;-61
2023/10/18 04:22:42;;;;;;;29.10;18.73;;;5.40;99.90;;;;;;5089975;28;20047;-62
2023/10/18 04:25:16;;;;;;;26.58;18.48;;;5.40;99.90;;;;;;5109967;28;20031;-62
2023/10/18 04:27:47;;;;;;;26.70;17.92;;;5.40;99.90;;;;;;5098849;28;20055;-62
2023/10/18 04:30:16;;;;;;;29.77;18.17;;;5.40;99.90;;;;;;5099032;28;20075;-62
2023/10/18 04:32:42;;;;;;;27.73;17.88;;;5.40;99.90;;;;;;5105624;28;20047;-62
2023/10/18 04:35:17;;;;;;;28.63;18.45;;;5.40;99.90;;;;;;5078447;28;20051;-62
2023/10/18 04:37:43;;;;;;;27.33;18.70;;;5.40;99.90;;;;;;5124084;28;20612;-62
2023/10/18 04:40:22;;;;;;;26.60;18.13;;;5.40;99.90;;;;;;5101886;28;20050;-62
2023/10/18 04:42:49;;;;;;;23.85;17.70;;;5.40;99.90;;;;;;5103329;28;20087;-62
2023/10/18 04:45:18;;;;;;;25.33;17.70;;;5.50;99.90;;;;;;5122025;28;20035;-62
2023/10/18 04:47:49;;;;;;;28.08;17.73;;;5.50;99.90;;;;;;5112351;28;20047;-62
2023/10/18 04:50:18;;;;;;;28.05;18.70;;;5.40;99.90;;;;;;5110259;28;20510;-62
2023/10/18 04:52:47;;;;;;;26.92;18.60;;;5.40;99.90;;;;;;5111602;28;20078;-62
2023/10/18 04:55:16;;;;;;;27.27;18.88;;;5.50;99.90;;;;;;5130731;28;20031;-62
2023/10/18 04:57:43;;;;;;;26.75;18.95;;;5.50;99.90;;;;;;5111489;28;20042;-62
2023/10/18 05:00:34;;;;;;;27.60;18.15;;;5.50;99.90;;;;;;5112309;28;20043;-62
2023/10/18 05:03:06;;;;;;;25.95;18.58;;;5.50;99.90;;;;;;5128140;28;20071;-62
2023/10/18 05:05:37;;;;;;;26.77;18.23;;;5.50;99.90;;;;;;5081171;28;20035;-61
2023/10/18 05:08:04;;;;;;;27.23;17.98;;;5.50;99.90;;;;;;5096826;28;20027;-62
2023/10/18 05:10:30;;;;;;;25.90;18.40;;;5.50;99.90;;;;;;5127039;28;20516;-62
2023/10/18 05:13:07;;;;;;;25.63;17.80;;;5.50;99.90;;;;;;5111358;28;20063;-62
2023/10/18 05:15:33;;;;;;;25.95;18.48;;;5.50;99.90;;;;;;5110776;28;20095;-62
2023/10/18 05:18:23;;;;;;;27.30;18.13;;;5.50;99.90;;;;;;5112123;28;20038;-62
2023/10/18 05:20:47;;;;;;;27.98;18.25;;;5.50;99.90;;;;;;5100235;28;20071;-62
2023/10/18 05:23:23;;;;;;;27.70;17.67;;;5.50;99.90;;;;;;5096609;28;20046;-62
2023/10/18 05:28:52;;;;;;;25.60;18.08;;;5.50;99.90;;;;;;5017490;28;20164;-62
2023/10/18 05:34:06;;;;;;;27.23;18.48;;;5.60;99.90;;;;;;5033207;28;20046;-62
2023/10/18 05:36:35;;;;;;;24.90;17.52;;;5.60;99.90;;;;;;5033027;28;20412;-62
2023/10/18 05:41:48;;;;;;;25.92;18.33;;;5.60;99.90;;;;;;5032507;28;20043;-62
2023/10/18 05:44:14;;;;;;;25.15;18.15;;;5.60;99.90;;;;;;5048837;28;20549;-62
2023/10/18 05:46:41;;;;;;;25.63;17.92;;;5.60;99.90;;;;;;5048786;28;20124;-62
2023/10/18 05:49:16;;;;;;;25.13;18.05;;;5.60;99.90;;;;;;5050462;28;20454;-62
2023/10/18 05:51:51;;;;;;;29.70;18.00;;;5.60;99.90;;;;;;5041292;28;20491;-63
2023/10/18 05:54:21;;;;;;;23.85;17.35;;;5.60;99.90;;;;;;5032433;28;20080;-62
2023/10/18 05:56:51;;;;;;;23.75;17.25;;;5.60;99.90;;;;;;5026084;28;20041;-62
2023/10/18 06:01:51;;;;;;;25.85;18.10;;;5.60;99.90;;;;;;5029710;28;20045;-63
2023/10/18 06:07:10;;;;;;;25.83;17.55;;;5.60;99.90;;;;;;5123520;27;20043;-62
2023/10/18 06:12:27;;;;;;;24.98;17.60;;;5.60;99.90;;;;;;5101621;27;20622;-62
2023/10/18 06:14:53;;;;;;;25.30;17.52;;;5.70;99.90;;;;;;5131260;27;20076;-62
2023/10/18 06:17:25;;;;;;;24.58;17.17;;;5.70;99.90;;;;;;5109484;27;20069;-63
2023/10/18 06:19:52;;;;;;;22.40;16.83;;;5.70;99.90;;;;;;5113856;27;20045;-63
2023/10/18 06:22:39;;;;;;;22.67;16.80;;;5.70;99.90;;;;;;5131022;27;20073;-64
2023/10/18 06:25:09;;;;;;;23.98;16.25;;;5.70;99.90;;;;;;5112144;27;20076;-63
2023/10/18 06:27:41;;;;;;;22.48;16.60;;;5.70;99.90;;;;;;5114175;27;20051;-63
2023/10/18 06:30:15;;;;;;;21.15;16.33;;;5.70;99.90;;;;;;5112071;27;20420;-63
2023/10/18 06:32:41;;;;;;;21.10;15.98;;;5.70;99.90;;;;;;5114388;27;20118;-63
2023/10/18 06:35:15;;;;;;;22.85;16.05;;;5.80;99.90;;;;;;5112123;27;20043;-63
2023/10/18 06:37:41;;;;;;;21.88;16.15;;;5.80;99.90;;;;;;5114173;27;20050;-63
2023/10/18 06:42:57;;;;;;;21.42;15.68;;;5.80;99.90;;;;;;5113836;28;20046;-63
2023/10/18 06:45:25;;;;;;;20.42;15.63;;;5.80;99.90;;;;;;5130083;27;20051;-63
2023/10/18 06:47:54;;;;;;;20.30;15.27;;;5.80;99.90;;;;;;5113579;27;20118;-63
2023/10/18 06:50:26;;;;;;;20.25;15.65;;;5.80;99.90;;;;;;5113063;27;20141;-63
2023/10/18 06:52:56;;;;;;;23.40;15.52;;;5.90;99.90;;;;;;5114054;27;20104;-63
2023/10/18 06:58:15;;;;;;;19.40;14.23;;;5.90;99.90;;;;;;5032102;28;20049;-63
2023/10/18 07:00:46;;;;;;;22.15;15.32;;;6.00;99.90;;;;;;5011080;28;20060;-63
2023/10/18 07:03:18;;;;;;;21.42;14.93;;;6.00;99.90;;;;;;5027857;28;20057;-63
2023/10/18 07:05:49;;;;;;;19.65;15.00;;;6.10;99.90;;;;;;5012118;28;20404;-63
2023/10/18 07:08:33;;;;;;;18.00;13.85;;;6.10;99.90;;;;;;5011001;28;20125;-63
2023/10/18 07:11:02;;;;;;;19.70;14.93;;;6.20;99.90;;;;;;5027312;28;20048;-63
2023/10/18 07:13:46;;;;;;;18.42;14.48;;;6.20;99.90;;;;;;4994097;28;20037;-63
2023/10/18 07:16:12;;;;;;;18.58;15.20;;;6.20;99.90;;;;;;5007050;28;20123;-63
2023/10/18 07:18:44;;;;;;;19.38;13.70;;;6.30;99.90;;;;;;5011370;28;20044;-63
2023/10/18 07:21:11;;;;;;;17.85;13.90;;;6.30;99.90;;;;;;5011681;28;20397;-63
2023/10/18 07:23:37;;;;;;;17.73;14.32;;;6.40;99.90;;;;;;5027738;28;20037;-63
2023/10/18 07:26:15;;;;;;;20.08;14.13;;;6.40;99.90;;;;;;4994849;28;20036;-64
2023/10/18 07:28:43;;;;;;;20.02;15.00;;;6.40;99.90;;;;;;5014270;28;20049;-63
2023/10/18 07:31:10;;;;;;;19.13;14.07;;;6.50;99.90;;;;;;4992425;28;20049;-63
2023/10/18 07:33:43;;;;;;;19.20;14.32;;;6.50;99.90;;;;;;5010632;28;20043;-63
2023/10/18 07:36:11;;;;;;;20.00;14.02;;;6.50;99.90;;;;;;5096438;27;20054;-63
2023/10/18 07:38:39;;;;;;;20.98;16.58;;;6.50;99.90;;;;;;5110615;27;20046;-64
2023/10/18 07:41:07;;;;;;;19.00;14.77;;;6.50;99.90;;;;;;5111859;27;20066;-63
2023/10/18 07:43:36;;;;;;;18.45;14.13;;;6.60;99.90;;;;;;5112322;27;20039;-63
2023/10/18 07:46:09;;;;;;;18.80;14.55;;;6.60;99.90;;;;;;5130509;27;20043;-63
2023/10/18 07:48:38;;;;;;;19.13;14.30;;;6.70;99.90;;;;;;5112038;27;20493;-63
2023/10/18 07:51:22;;;;;;;16.92;13.27;;;6.70;99.90;;;;;;5129751;27;20035;-63
2023/10/18 07:53:48;;;;;;;17.52;13.77;;;6.70;99.90;;;;;;5112187;27;20042;-63
2023/10/18 07:56:16;;;;;;;18.70;13.90;;;6.70;99.90;;;;;;5109863;27;20051;-63
2023/10/18 07:58:48;;;;;;;17.58;13.40;;;6.80;99.90;;;;;;5112800;27;20482;-63
2023/10/18 08:01:14;;;;;;;;;;;6.80;99.90;;;;;;5112428;27;20634;-63
2023/10/18 08:03:42;;;;;;;20.95;12.43;;;6.90;99.90;;;;;;5130507;27;19939;-63
2023/10/18 08:06:15;;;;;;;17.35;13.20;;;6.90;99.90;;;;;;5110348;27;20037;-63
2023/10/18 08:08:42;;;;;;;18.67;13.65;;;7.00;99.90;;;;;;5112021;27;20605;-64
2023/10/18 08:11:11;;;;;;;17.38;12.93;;;7.10;99.90;;;;;;5111433;27;20071;-64
2023/10/18 08:13:47;;;;;;;16.08;12.40;;;7.10;99.90;;;;;;5112175;27;20464;-63
2023/10/18 08:16:27;;;;;;;14.65;11.88;;;7.20;99.90;;;;;;5130657;27;20427;-63
2023/10/18 08:18:53;;;;;;;16.25;11.88;;;7.20;99.90;;;;;;5095363;28;20121;-63
2023/10/18 08:21:26;;;;;;;16.52;11.98;;;7.30;99.90;;;;;;5111416;27;20039;-63
2023/10/18 08:23:56;;;;;;;16.50;11.80;;;7.30;99.90;;;;;;5111313;27;20027;-63
2023/10/18 08:26:29;;;;;;;15.55;12.02;;;7.40;99.90;;;;;;5111189;28;20047;-63
2023/10/18 08:28:55;;;;;;;15.52;11.40;;;7.40;99.90;;;;;;5111391;28;20043;-64
2023/10/18 08:31:32;;;;;;;14.32;10.65;;;7.50;99.90;;;;;;5108547;28;20114;-64
2023/10/18 08:34:18;;;;;;;15.15;11.02;;;7.60;99.90;;;;;;5110475;28;20043;-63
2023/10/18 08:36:44;;;;;;;14.57;11.00;;;7.70;99.90;;;;;;5109580;28;20047;-63
2023/10/18 08:39:10;;;;;;;16.27;11.98;;;7.80;99.90;;;;;;5094387;28;20047;-63
2023/10/18 08:41:44;;;;;;;17.48;11.63;;;7.90;99.90;;;;;;5129890;28;20062;-63
2023/10/18 08:44:21;;;;;;;14.68;11.00;;;7.90;99.90;;;;;;5129858;28;20035;-63
2023/10/18 08:46:52;;;;;;;12.18;10.25;;;8.00;99.90;;;;;;5109437;28;20477;-64
2023/10/18 08:49:23;;;;;;;13.50;10.60;;;8.10;99.90;;;;;;5107911;28;20054;-63
2023/10/18 08:52:04;;;;;;;14.27;10.43;;;8.20;99.90;;;;;;5111459;28;20094;-63
2023/10/18 08:54:32;;;;;;;13.98;9.82;;;8.40;99.90;;;;;;5109810;28;20058;-63
2023/10/18 08:56:59;;;;;;;13.25;9.90;;;8.50;99.90;;;;;;5130014;28;20629;-63
2023/10/18 08:59:27;;;;;;;14.48;10.57;;;8.60;99.90;;;;;;5110207;28;20516;-63
2023/10/18 09:02:09;;;;;;;13.93;10.57;;;8.80;99.90;;;;;;5106506;28;20065;-63
2023/10/18 09:04:35;;;;;;;13.50;10.50;;;8.80;99.90;;;;;;5094827;28;20500;-63
2023/10/18 09:09:57;;;;;;;21.58;18.13;;;9.00;99.90;;;;;;5115280;27;20054;-63
2023/10/18 09:15:28;;;;;;;14.02;10.68;;;9.20;99.90;;;;;;5115298;27;20043;-63
2023/10/18 09:18:00;;;;;;;13.40;9.75;;;9.30;99.90;;;;;;5112708;27;20051;-63
2023/10/18 09:20:26;;;;;;;20.77;14.80;;;9.40;99.90;;;;;;5114709;27;20047;-61
2023/10/18 09:23:01;;;;;;;13.05;9.80;;;9.50;99.90;;;;;;5135798;27;20063;-61
2023/10/18 09:28:11;;;;;;;11.00;8.73;;;9.60;99.90;;;;;;5114800;27;20084;-62
2023/10/18 09:30:37;;;;;;;10.40;8.30;;;9.60;99.90;;;;;;5115550;27;20047;-63
2023/10/18 09:33:03;;;;;;;10.73;8.20;;;9.70;99.90;;;;;;5115610;27;20058;-63
2023/10/18 09:35:30;;;;;;;11.20;8.75;;;9.70;99.90;;;;;;5133838;27;20044;-63
2023/10/18 09:38:03;;;;;;;12.90;9.02;;;9.70;99.90;;;;;;5115914;27;20123;-63
2023/10/18 09:40:29;;;;;;;10.32;8.38;;;9.80;99.90;;;;;;5133845;27;20043;-63
2023/10/18 09:42:55;;;;;;;9.90;7.72;;;9.70;99.90;;;;;;5115598;27;20459;-63
2023/10/18 09:45:21;;;;;;;11.55;9.05;;;9.80;99.90;;;;;;5133840;27;20114;-63
2023/10/18 09:47:50;;;;;;;12.77;8.52;;;9.90;99.90;;;;;;5133929;27;20031;-63
2023/10/18 09:50:23;;;;;;;11.55;8.23;;;9.90;99.90;;;;;;5134061;27;20067;-63
2023/10/18 09:52:56;;;;;;;11.43;8.60;;;9.90;99.90;;;;;;5115300;27;20085;-63
2023/10/18 09:55:25;;;;;;;9.88;7.90;;;10.00;99.90;;;;;;5115409;27;20521;-63
2023/10/18 09:58:14;;;;;;;11.73;9.90;;;10.00;99.90;;;;;;5133269;27;20378;-63
2023/10/18 10:00:42;;;;;;;11.40;8.52;;;10.00;99.90;;;;;;5115222;27;20043;-63
2023/10/18 10:03:15;;;;;;;12.63;7.80;;;10.00;99.90;;;;;;5115049;27;20028;-62
2023/10/18 10:05:42;;;;;;;11.93;8.93;;;10.00;99.90;;;;;;5114481;27;20035;-63
2023/10/18 10:08:09;;;;;;;11.95;8.27;;;10.00;99.90;;;;;;5115241;27;20035;-63
2023/10/18 10:10:45;;;;;;;10.55;8.23;;;10.10;99.90;;;;;;5114684;27;20112;-63
2023/10/18 10:13:18;;;;;;;11.23;8.05;;;10.10;99.90;;;;;;5114769;27;20035;-63
2023/10/18 10:16:02;;;;;;;10.77;7.45;;;10.20;99.90;;;;;;5114662;27;20051;-63
2023/10/18 10:18:32;;;;;;;10.35;7.95;;;10.30;99.90;;;;;;5113731;27;20051;-64
2023/10/18 10:21:03;;;;;;;9.85;7.90;;;10.30;99.90;;;;;;5114500;27;20114;-63
2023/10/18 10:23:32;;;;;;;8.82;7.22;;;10.40;99.90;;;;;;5133203;27;20164;-64
2023/10/18 10:26:15;;;;;;;9.45;7.13;;;10.60;99.90;;;;;;5114428;27;20051;-63
2023/10/18 10:31:51;;;;;;;11.02;8.10;;;10.80;99.90;;;;;;5114575;27;20043;-63
2023/10/18 10:34:24;;;;;;;8.85;7.40;;;10.70;99.90;;;;;;5114467;27;20069;-63
2023/10/18 10:37:23;;;;;;;10.60;7.43;;;10.70;99.90;;;;;;5114004;27;20047;-63
2023/10/18 10:40:18;;;;;;;10.77;7.55;;;10.70;99.90;;;;;;5030635;28;20523;-61
2023/10/18 10:42:46;;;;;;;9.68;7.50;;;10.70;99.90;;;;;;5031421;28;20037;-62
2023/10/18 10:45:35;;;;;;;11.00;8.07;;;10.70;99.90;;;;;;5045746;28;20080;-63
2023/10/18 10:48:21;;;;;;;10.73;7.82;;;10.70;99.90;;;;;;5048206;28;20041;-62
2023/10/18 10:50:57;;;;;;;9.98;8.40;;;10.80;99.90;;;;;;5049036;28;20060;-62
2023/10/18 10:53:45;;;;;;;10.32;8.30;;;10.90;99.90;;;;;;5047988;28;20531;-62
2023/10/18 10:56:32;;;;;;;10.65;7.82;;;11.00;99.90;;;;;;5032141;28;20064;-62
2023/10/18 11:01:57;;;;;;;8.90;7.57;;;11.10;99.90;;;;;;5048827;28;20052;-62
2023/10/18 11:04:25;;;;;;;9.20;7.60;;;11.10;99.90;;;;;;5015317;28;20052;-62
2023/10/18 11:07:01;;;;;;;10.80;8.07;;;11.10;99.90;;;;;;5047719;28;20036;-62
2023/10/18 11:09:33;;;;;;;8.65;7.05;;;11.10;99.90;;;;;;5031693;28;20615;-62
2023/10/18 11:12:11;;;;;;;10.40;7.20;;;11.10;99.90;;;;;;5015154;28;20049;-62
2023/10/18 11:14:37;;;;;;;9.95;7.53;;;11.20;99.90;;;;;;5048413;28;20891;-62
2023/10/18 11:17:17;;;;;;;8.63;6.72;;;11.10;99.90;;;;;;5085813;27;20051;-62
2023/10/18 11:19:53;;;;;;;11.55;7.55;;;11.20;99.90;;;;;;5112319;27;20043;-63
2023/10/18 11:22:23;;;;;;;11.07;7.13;;;11.10;99.90;;;;;;5113319;27;20537;-62
2023/10/18 11:24:55;;;;;;;9.70;7.25;;;11.10;99.90;;;;;;5132880;27;20050;-63
2023/10/18 11:27:33;;;;;;;9.70;7.15;;;11.10;99.90;;;;;;5111825;27;20108;-63
2023/10/18 11:30:45;;;;;;;9.25;7.25;;;11.10;99.90;;;;;;5095180;27;20053;-63
2023/10/18 11:32:50;;;;;;;11.30;7.72;;;11.10;99.90;;;;;;5098159;27;20047;-62
2023/10/18 11:35:27;;;;;;;9.65;7.45;;;11.10;99.90;;;;;;5130991;27;20521;-62
2023/10/18 11:37:53;;;;;;;9.27;6.97;;;11.10;99.90;;;;;;5124560;27;20389;-62
2023/10/18 11:40:21;;;;;;;10.93;7.47;;;11.20;99.90;;;;;;5109582;27;20121;-63
2023/10/18 11:43:06;;;;;;;8.48;7.47;;;11.20;99.90;;;;;;5084165;27;20143;-62
2023/10/18 11:45:36;;;;;;;9.45;7.20;;;11.20;99.90;;;;;;5099329;27;20069;-62
2023/10/18 11:48:02;;;;;;;8.60;7.07;;;11.30;99.90;;;;;;5099266;27;20135;-62
2023/10/18 11:50:49;;;;;;;12.07;10.85;;;11.30;99.90;;;;;;5101755;27;20054;-62
2023/10/18 11:53:17;;;;;;;7.38;6.47;;;11.40;99.90;;;;;;5128817;27;20082;-62
2023/10/18 11:56:11;;;;;;;8.55;7.35;;;11.40;99.90;;;;;;5112475;27;20066;-62
2023/10/18 11:58:40;;;;;;;10.93;7.07;;;11.40;99.90;;;;;;5108893;27;20047;-62
2023/10/18 12:01:19;;;;;;;9.15;7.15;;;11.40;99.90;;;;;;5102405;27;20031;-62
2023/10/18 12:03:48;;;;;;;9.63;6.82;;;11.50;99.90;;;;;;5096318;27;20031;-63
2023/10/18 12:06:13;;;;;;;8.05;6.47;;;11.50;99.90;;;;;;5124264;27;20046;-62
2023/10/18 12:11:28;;;;;;;9.07;7.10;;;11.50;99.90;;;;;;5127177;27;20047;-62
2023/10/18 12:13:53;;;;;;;11.32;6.68;;;11.60;99.90;;;;;;5113151;27;20366;-62
2023/10/18 12:16:22;;;;;;;7.30;6.50;;;11.60;99.90;;;;;;5131621;27;20042;-62
2023/10/18 12:18:48;;;;;;;8.45;6.38;;;11.60;99.90;;;;;;5131657;27;20039;-62
2023/10/18 12:21:14;;;;;;;8.73;6.80;;;11.60;99.90;;;;;;5112371;27;20054;-62
2023/10/18 12:23:40;;;;;;;8.50;6.40;;;11.70;99.90;;;;;;5112824;28;20035;-62
2023/10/18 12:26:06;;;;;;;9.93;6.68;;;11.70;99.90;;;;;;5112938;27;20051;-62
2023/10/18 12:28:41;;;;;;;7.95;6.60;;;11.80;99.90;;;;;;5095541;28;20045;-62
2023/10/18 12:31:12;;;;;;;7.47;6.20;;;11.80;99.90;;;;;;5130809;28;20097;-62
2023/10/18 12:33:40;;;;;;;10.00;6.55;;;11.90;99.90;;;;;;5112784;28;20082;-62
2023/10/18 12:36:08;;;;;;;9.02;6.53;;;11.90;99.90;;;;;;5112277;28;20042;-62
2023/10/18 12:38:36;;;;;;;8.30;6.35;;;12.00;99.90;;;;;;5110296;28;20047;-62
2023/10/18 12:41:11;;;;;;;9.77;6.38;;;12.20;99.90;;;;;;5093658;27;20035;-62
2023/10/18 12:43:38;;;;;;;8.25;5.93;;;12.30;99.90;;;;;;5115547;27;20062;-62
2023/10/18 12:46:06;;;;;;;8.38;6.55;;;12.30;99.90;;;;;;5116130;27;20489;-62
2023/10/18 12:48:31;;;;;;;10.13;6.05;;;12.20;99.90;;;;;;5098538;27;20051;-62
2023/10/18 12:50:59;;;;;;;11.10;6.32;;;12.10;99.90;;;;;;5116461;27;20035;-62
2023/10/18 12:58:47;;;;;;;7.60;6.38;;;12.10;99.90;;;;;;5134414;27;20138;-62
2023/10/18 13:01:14;;;;;;;6.90;5.57;;;12.00;99.90;;;;;;5134707;27;20096;-62
2023/10/18 13:03:56;;;;;;;8.23;5.80;;;12.00;99.90;;;;;;5114774;27;20394;-62
2023/10/18 13:06:30;;;;;;;8.50;5.85;;;12.10;99.90;;;;;;5115993;27;20053;-62
2023/10/18 13:09:06;;;;;;;7.88;5.70;;;12.10;99.90;;;;;;5115760;27;20035;-62
2023/10/18 13:14:11;;;;;;;10.27;6.22;;;12.40;99.90;;;;;;5113097;27;20042;-62
2023/10/18 13:16:37;;;;;;;7.60;5.70;;;12.40;99.90;;;;;;5113903;27;20062;-62
2023/10/18 13:19:06;;;;;;;7.18;6.07;;;12.50;99.90;;;;;;5115795;27;20035;-62
2023/10/18 13:21:39;;;;;;;7.85;6.57;;;12.50;99.90;;;;;;5116083;27;20043;-62
2023/10/18 13:24:17;;;;;;;8.90;6.30;;;12.60;99.90;;;;;;5113889;27;20047;-63
2023/10/18 13:26:44;;;;;;;8.27;5.90;;;12.60;99.90;;;;;;5115603;27;20061;-62
2023/10/18 13:31:45;;;;;;;7.18;5.68;;;12.50;99.90;;;;;;5115448;27;20126;-62
2023/10/18 13:34:18;;;;;;;8.80;6.32;;;12.40;99.90;;;;;;5115882;27;20474;-62
2023/10/18 13:36:47;;;;;;;7.68;5.85;;;12.40;99.90;;;;;;5115908;27;20529;-63
2023/10/18 13:39:14;;;;;;;6.95;5.90;;;12.40;99.90;;;;;;5114389;27;20139;-62
2023/10/18 13:41:47;;;;;;;7.43;5.60;;;12.40;99.90;;;;;;5098090;27;20039;-62
2023/10/18 13:44:12;;;;;;;;;;;12.30;99.90;;;;;;5134285;27;20088;-62
2023/10/18 13:46:38;;;;;;;11.82;6.65;;;12.20;99.90;;;;;;5115449;27;20286;-63
2023/10/18 13:49:08;;;;;;;11.82;6.55;;;12.10;99.90;;;;;;5114091;27;20075;-63
2023/10/18 13:51:41;;;;;;;10.60;6.32;;;12.00;99.90;;;;;;5133701;27;20397;-62
2023/10/18 13:54:12;;;;;;;6.53;5.78;;;12.00;99.90;;;;;;5113859;27;20035;-62
2023/10/18 13:56:38;;;;;;;10.13;6.60;;;12.00;99.90;;;;;;5114635;27;20099;-62
2023/10/18 13:59:04;;;;;;;8.30;5.80;;;11.90;99.90;;;;;;5133422;27;20489;-62
2023/10/18 14:01:31;;;;;;;6.70;6.00;;;11.90;99.90;;;;;;5114267;27;20035;-62